sensor_id;sensor_type;location;lat;lon;timestamp;P1;durP1;ratioP1;P2;durP2;ratioP2
45522;SDS011;31254;51.680;5.394;2023-05-25T00:01:12;11.07;;;4.60;;
45522;SDS011;31254;51.680;5.394;2023-05-25T00:03:39;13.95;;;5.18;;
45522;SDS011;31254;51.680;5.394;2023-05-25T00:06:06;16.15;;;4.85;;
45522;SDS011;31254;51.680;5.394;2023-05-25T00:08:33;12.43;;;5.85;;
45522;SDS011;31254;51.680;5.394;2023-05-25T00:11:00;12.30;;;4.95;;
45522;SDS011;31254;51.680;5.394;2023-05-25T00:13:29;15.57;;;4.68;;
45522;SDS011;31254;51.680;5.394;2023-05-25T00:15:56;12.75;;;4.32;;
45522;SDS011;31254;51.680;5.394;2023-05-25T00:18:23;14.10;;;4.82;;
45522;SDS011;31254;51.680;5.394;2023-05-25T00:20:50;20.60;;;5.30;;
45522;SDS011;31254;51.680;5.394;2023-05-25T00:23:20;11.75;;;4.93;;
45522;SDS011;31254;51.680;5.394;2023-05-25T00:25:50;11.77;;;4.53;;
45522;SDS011;31254;51.680;5.394;2023-05-25T00:28:17;14.15;;;4.45;;
45522;SDS011;31254;51.680;5.394;2023-05-25T00:30:44;13.25;;;4.55;;
45522;SDS011;31254;51.680;5.394;2023-05-25T00:33:11;16.42;;;5.13;;
45522;SDS011;31254;51.680;5.394;2023-05-25T00:35:38;13.48;;;4.65;;
45522;SDS011;31254;51.680;5.394;2023-05-25T00:38:04;11.88;;;4.85;;
45522;SDS011;31254;51.680;5.394;2023-05-25T00:40:34;14.50;;;5.38;;
45522;SDS011;31254;51.680;5.394;2023-05-25T00:43:04;13.32;;;4.60;;
45522;SDS011;31254;51.680;5.394;2023-05-25T00:45:33;13.07;;;5.18;;
45522;SDS011;31254;51.680;5.394;2023-05-25T00:48:01;12.30;;;4.63;;
45522;SDS011;31254;51.680;5.394;2023-05-25T00:50:38;11.52;;;4.85;;
45522;SDS011;31254;51.680;5.394;2023-05-25T00:53:08;16.92;;;5.07;;
45522;SDS011;31254;51.680;5.394;2023-05-25T00:55:38;14.63;;;5.00;;
45522;SDS011;31254;51.680;5.394;2023-05-25T00:58:11;14.15;;;5.45;;
45522;SDS011;31254;51.680;5.394;2023-05-25T01:00:39;12.45;;;5.22;;
45522;SDS011;31254;51.680;5.394;2023-05-25T01:03:11;18.17;;;5.32;;
45522;SDS011;31254;51.680;5.394;2023-05-25T01:05:44;15.05;;;5.15;;
45522;SDS011;31254;51.680;5.394;2023-05-25T01:08:15;14.07;;;5.65;;
45522;SDS011;31254;51.680;5.394;2023-05-25T01:10:43;16.60;;;4.80;;
45522;SDS011;31254;51.680;5.394;2023-05-25T01:13:18;12.18;;;5.18;;
45522;SDS011;31254;51.680;5.394;2023-05-25T01:15:46;14.00;;;5.10;;
45522;SDS011;31254;51.680;5.394;2023-05-25T01:18:14;16.65;;;5.05;;
45522;SDS011;31254;51.680;5.394;2023-05-25T01:23:46;10.00;;;4.40;;
45522;SDS011;31254;51.680;5.394;2023-05-25T01:26:18;12.50;;;4.90;;
45522;SDS011;31254;51.680;5.394;2023-05-25T01:28:50;12.27;;;5.40;;
45522;SDS011;31254;51.680;5.394;2023-05-25T01:31:21;12.52;;;5.15;;
45522;SDS011;31254;51.680;5.394;2023-05-25T01:33:49;10.02;;;4.70;;
45522;SDS011;31254;51.680;5.394;2023-05-25T01:36:20;11.10;;;4.97;;
45522;SDS011;31254;51.680;5.394;2023-05-25T01:38:47;13.88;;;4.85;;
45522;SDS011;31254;51.680;5.394;2023-05-25T01:41:14;13.55;;;4.22;;
45522;SDS011;31254;51.680;5.394;2023-05-25T01:43:41;11.23;;;4.32;;
45522;SDS011;31254;51.680;5.394;2023-05-25T01:49:01;12.88;;;5.18;;
45522;SDS011;31254;51.680;5.394;2023-05-25T01:51:50;16.27;;;4.93;;
45522;SDS011;31254;51.680;5.394;2023-05-25T01:54:28;11.85;;;4.63;;
45522;SDS011;31254;51.680;5.394;2023-05-25T01:57:01;11.95;;;4.65;;
45522;SDS011;31254;51.680;5.394;2023-05-25T01:59:38;15.05;;;5.03;;
45522;SDS011;31254;51.680;5.394;2023-05-25T02:02:09;11.05;;;4.97;;
45522;SDS011;31254;51.680;5.394;2023-05-25T02:04:38;13.63;;;5.13;;
45522;SDS011;31254;51.680;5.394;2023-05-25T02:07:06;15.82;;;4.90;;
45522;SDS011;31254;51.680;5.394;2023-05-25T02:09:33;12.90;;;4.95;;
45522;SDS011;31254;51.680;5.394;2023-05-25T02:12:03;17.08;;;4.82;;
45522;SDS011;31254;51.680;5.394;2023-05-25T02:14:30;13.82;;;5.18;;
45522;SDS011;31254;51.680;5.394;2023-05-25T02:16:56;9.60;;;4.78;;
45522;SDS011;31254;51.680;5.394;2023-05-25T02:19:27;13.07;;;4.78;;
45522;SDS011;31254;51.680;5.394;2023-05-25T02:21:54;19.48;;;5.00;;
45522;SDS011;31254;51.680;5.394;2023-05-25T02:24:21;18.40;;;4.85;;
45522;SDS011;31254;51.680;5.394;2023-05-25T02:26:50;12.38;;;4.95;;
45522;SDS011;31254;51.680;5.394;2023-05-25T02:29:17;16.65;;;5.35;;
45522;SDS011;31254;51.680;5.394;2023-05-25T02:31:44;12.68;;;4.68;;
45522;SDS011;31254;51.680;5.394;2023-05-25T02:34:11;10.98;;;5.35;;
45522;SDS011;31254;51.680;5.394;2023-05-25T02:36:40;15.82;;;5.20;;
45522;SDS011;31254;51.680;5.394;2023-05-25T02:39:09;9.90;;;4.97;;
45522;SDS011;31254;51.680;5.394;2023-05-25T02:41:37;10.32;;;4.55;;
45522;SDS011;31254;51.680;5.394;2023-05-25T02:44:04;11.93;;;5.35;;
45522;SDS011;31254;51.680;5.394;2023-05-25T02:46:31;8.77;;;4.57;;
45522;SDS011;31254;51.680;5.394;2023-05-25T02:48:59;11.65;;;5.18;;
45522;SDS011;31254;51.680;5.394;2023-05-25T02:51:26;15.25;;;5.53;;
45522;SDS011;31254;51.680;5.394;2023-05-25T02:53:54;13.75;;;5.22;;
45522;SDS011;31254;51.680;5.394;2023-05-25T02:56:21;11.85;;;5.10;;
45522;SDS011;31254;51.680;5.394;2023-05-25T02:58:48;18.38;;;5.07;;
45522;SDS011;31254;51.680;5.394;2023-05-25T03:01:15;13.35;;;4.88;;
45522;SDS011;31254;51.680;5.394;2023-05-25T03:03:45;11.73;;;4.32;;
45522;SDS011;31254;51.680;5.394;2023-05-25T03:06:13;10.02;;;4.90;;
45522;SDS011;31254;51.680;5.394;2023-05-25T03:08:44;12.70;;;5.68;;
45522;SDS011;31254;51.680;5.394;2023-05-25T03:11:11;13.10;;;5.03;;
45522;SDS011;31254;51.680;5.394;2023-05-25T03:13:40;12.43;;;4.88;;
45522;SDS011;31254;51.680;5.394;2023-05-25T03:16:07;13.57;;;5.40;;
45522;SDS011;31254;51.680;5.394;2023-05-25T03:18:35;12.40;;;5.28;;
45522;SDS011;31254;51.680;5.394;2023-05-25T03:21:02;13.48;;;6.10;;
45522;SDS011;31254;51.680;5.394;2023-05-25T03:23:29;15.38;;;5.28;;
45522;SDS011;31254;51.680;5.394;2023-05-25T03:25:56;10.45;;;5.25;;
45522;SDS011;31254;51.680;5.394;2023-05-25T03:28:23;15.35;;;5.57;;
45522;SDS011;31254;51.680;5.394;2023-05-25T03:30:53;9.07;;;4.72;;
45522;SDS011;31254;51.680;5.394;2023-05-25T03:33:20;13.38;;;5.72;;
45522;SDS011;31254;51.680;5.394;2023-05-25T03:35:46;12.65;;;4.85;;
45522;SDS011;31254;51.680;5.394;2023-05-25T03:38:15;13.93;;;4.93;;
45522;SDS011;31254;51.680;5.394;2023-05-25T03:40:42;16.33;;;5.47;;
45522;SDS011;31254;51.680;5.394;2023-05-25T03:43:09;13.93;;;5.38;;
45522;SDS011;31254;51.680;5.394;2023-05-25T03:45:36;13.90;;;5.55;;
45522;SDS011;31254;51.680;5.394;2023-05-25T03:48:06;10.80;;;5.50;;
45522;SDS011;31254;51.680;5.394;2023-05-25T03:50:33;10.50;;;5.38;;
45522;SDS011;31254;51.680;5.394;2023-05-25T03:53:00;18.05;;;5.82;;
45522;SDS011;31254;51.680;5.394;2023-05-25T03:55:26;13.63;;;5.95;;
45522;SDS011;31254;51.680;5.394;2023-05-25T03:57:54;14.23;;;6.35;;
45522;SDS011;31254;51.680;5.394;2023-05-25T04:00:21;17.08;;;5.97;;
45522;SDS011;31254;51.680;5.394;2023-05-25T04:02:48;17.02;;;6.20;;
45522;SDS011;31254;51.680;5.394;2023-05-25T04:05:15;12.27;;;6.07;;
45522;SDS011;31254;51.680;5.394;2023-05-25T04:07:41;16.42;;;5.85;;
45522;SDS011;31254;51.680;5.394;2023-05-25T04:10:09;12.45;;;5.90;;
45522;SDS011;31254;51.680;5.394;2023-05-25T04:12:36;11.93;;;6.03;;
45522;SDS011;31254;51.680;5.394;2023-05-25T04:15:03;12.30;;;5.28;;
45522;SDS011;31254;51.680;5.394;2023-05-25T04:17:34;10.68;;;5.20;;
45522;SDS011;31254;51.680;5.394;2023-05-25T04:20:05;12.73;;;5.47;;
45522;SDS011;31254;51.680;5.394;2023-05-25T04:22:34;12.95;;;5.38;;
45522;SDS011;31254;51.680;5.394;2023-05-25T04:25:05;15.05;;;5.63;;
45522;SDS011;31254;51.680;5.394;2023-05-25T04:27:33;11.50;;;5.30;;
45522;SDS011;31254;51.680;5.394;2023-05-25T04:30:00;14.43;;;5.97;;
45522;SDS011;31254;51.680;5.394;2023-05-25T04:32:27;13.52;;;5.35;;
45522;SDS011;31254;51.680;5.394;2023-05-25T04:34:55;13.73;;;5.43;;
45522;SDS011;31254;51.680;5.394;2023-05-25T04:37:22;17.10;;;5.97;;
45522;SDS011;31254;51.680;5.394;2023-05-25T04:39:52;10.35;;;5.53;;
45522;SDS011;31254;51.680;5.394;2023-05-25T04:42:19;12.68;;;5.32;;
45522;SDS011;31254;51.680;5.394;2023-05-25T04:44:49;15.15;;;5.85;;
45522;SDS011;31254;51.680;5.394;2023-05-25T04:47:21;11.52;;;5.45;;
45522;SDS011;31254;51.680;5.394;2023-05-25T04:49:50;14.05;;;5.32;;
45522;SDS011;31254;51.680;5.394;2023-05-25T04:52:17;12.05;;;5.68;;
45522;SDS011;31254;51.680;5.394;2023-05-25T04:54:44;12.35;;;5.25;;
45522;SDS011;31254;51.680;5.394;2023-05-25T04:57:12;18.00;;;5.55;;
45522;SDS011;31254;51.680;5.394;2023-05-25T04:59:38;16.40;;;5.78;;
45522;SDS011;31254;51.680;5.394;2023-05-25T05:02:06;16.70;;;5.75;;
45522;SDS011;31254;51.680;5.394;2023-05-25T05:04:33;10.73;;;5.00;;
45522;SDS011;31254;51.680;5.394;2023-05-25T05:07:02;13.07;;;4.55;;
45522;SDS011;31254;51.680;5.394;2023-05-25T05:09:29;12.77;;;4.72;;
45522;SDS011;31254;51.680;5.394;2023-05-25T05:11:56;13.77;;;3.75;;
45522;SDS011;31254;51.680;5.394;2023-05-25T05:14:22;9.57;;;3.97;;
45522;SDS011;31254;51.680;5.394;2023-05-25T05:16:49;12.32;;;3.78;;
45522;SDS011;31254;51.680;5.394;2023-05-25T05:19:16;12.10;;;4.40;;
45522;SDS011;31254;51.680;5.394;2023-05-25T05:21:45;12.45;;;4.20;;
45522;SDS011;31254;51.680;5.394;2023-05-25T05:24:15;13.27;;;4.05;;
45522;SDS011;31254;51.680;5.394;2023-05-25T05:26:42;8.98;;;3.60;;
45522;SDS011;31254;51.680;5.394;2023-05-25T05:29:22;11.52;;;3.78;;
45522;SDS011;31254;51.680;5.394;2023-05-25T05:31:49;12.10;;;3.92;;
45522;SDS011;31254;51.680;5.394;2023-05-25T05:34:16;7.18;;;3.20;;
45522;SDS011;31254;51.680;5.394;2023-05-25T05:36:43;16.95;;;4.00;;
45522;SDS011;31254;51.680;5.394;2023-05-25T05:39:22;9.93;;;3.40;;
45522;SDS011;31254;51.680;5.394;2023-05-25T05:41:49;10.45;;;3.53;;
45522;SDS011;31254;51.680;5.394;2023-05-25T05:44:17;12.38;;;4.07;;
45522;SDS011;31254;51.680;5.394;2023-05-25T05:46:44;14.18;;;4.10;;
45522;SDS011;31254;51.680;5.394;2023-05-25T05:49:11;9.82;;;4.10;;
45522;SDS011;31254;51.680;5.394;2023-05-25T05:51:38;17.42;;;4.43;;
45522;SDS011;31254;51.680;5.394;2023-05-25T05:54:05;12.02;;;3.63;;
45522;SDS011;31254;51.680;5.394;2023-05-25T05:56:32;10.93;;;4.28;;
45522;SDS011;31254;51.680;5.394;2023-05-25T05:58:59;14.40;;;4.15;;
45522;SDS011;31254;51.680;5.394;2023-05-25T06:01:26;11.50;;;3.83;;
45522;SDS011;31254;51.680;5.394;2023-05-25T06:03:52;11.23;;;4.40;;
45522;SDS011;31254;51.680;5.394;2023-05-25T06:06:23;19.90;;;5.13;;
45522;SDS011;31254;51.680;5.394;2023-05-25T06:08:50;11.65;;;3.90;;
45522;SDS011;31254;51.680;5.394;2023-05-25T06:11:18;10.40;;;3.72;;
45522;SDS011;31254;51.680;5.394;2023-05-25T06:13:45;12.50;;;4.10;;
45522;SDS011;31254;51.680;5.394;2023-05-25T06:16:12;13.90;;;4.22;;
45522;SDS011;31254;51.680;5.394;2023-05-25T06:18:39;14.32;;;4.55;;
45522;SDS011;31254;51.680;5.394;2023-05-25T06:21:24;13.70;;;4.53;;
45522;SDS011;31254;51.680;5.394;2023-05-25T06:24:07;15.73;;;4.35;;
45522;SDS011;31254;51.680;5.394;2023-05-25T06:26:48;10.70;;;3.70;;
45522;SDS011;31254;51.680;5.394;2023-05-25T06:29:29;17.08;;;4.50;;
45522;SDS011;31254;51.680;5.394;2023-05-25T06:32:10;12.13;;;3.25;;
45522;SDS011;31254;51.680;5.394;2023-05-25T06:34:52;20.05;;;4.40;;
45522;SDS011;31254;51.680;5.394;2023-05-25T06:37:33;13.10;;;4.03;;
45522;SDS011;31254;51.680;5.394;2023-05-25T06:40:17;13.25;;;3.45;;
45522;SDS011;31254;51.680;5.394;2023-05-25T06:42:58;10.57;;;3.30;;
45522;SDS011;31254;51.680;5.394;2023-05-25T06:45:39;8.30;;;3.90;;
45522;SDS011;31254;51.680;5.394;2023-05-25T06:48:22;11.77;;;3.63;;
45522;SDS011;31254;51.680;5.394;2023-05-25T06:51:03;13.10;;;4.05;;
45522;SDS011;31254;51.680;5.394;2023-05-25T06:53:31;7.43;;;3.47;;
45522;SDS011;31254;51.680;5.394;2023-05-25T06:56:01;11.52;;;3.45;;
45522;SDS011;31254;51.680;5.394;2023-05-25T06:58:27;8.43;;;3.25;;
45522;SDS011;31254;51.680;5.394;2023-05-25T07:00:57;9.50;;;3.35;;
45522;SDS011;31254;51.680;5.394;2023-05-25T07:03:27;8.85;;;3.20;;
45522;SDS011;31254;51.680;5.394;2023-05-25T07:05:53;9.75;;;3.22;;
45522;SDS011;31254;51.680;5.394;2023-05-25T07:08:22;10.95;;;3.45;;
45522;SDS011;31254;51.680;5.394;2023-05-25T07:10:49;9.95;;;3.60;;
45522;SDS011;31254;51.680;5.394;2023-05-25T07:13:16;13.13;;;3.30;;
45522;SDS011;31254;51.680;5.394;2023-05-25T07:15:43;13.20;;;3.22;;
45522;SDS011;31254;51.680;5.394;2023-05-25T07:18:11;8.25;;;3.22;;
45522;SDS011;31254;51.680;5.394;2023-05-25T07:20:40;12.75;;;3.80;;
45522;SDS011;31254;51.680;5.394;2023-05-25T07:23:08;12.15;;;3.60;;
45522;SDS011;31254;51.680;5.394;2023-05-25T07:25:39;11.38;;;4.03;;
45522;SDS011;31254;51.680;5.394;2023-05-25T07:28:07;10.85;;;3.40;;
45522;SDS011;31254;51.680;5.394;2023-05-25T07:30:34;12.10;;;4.03;;
45522;SDS011;31254;51.680;5.394;2023-05-25T07:33:01;8.77;;;3.13;;
45522;SDS011;31254;51.680;5.394;2023-05-25T07:35:28;10.48;;;3.78;;
45522;SDS011;31254;51.680;5.394;2023-05-25T07:37:58;12.13;;;4.25;;
45522;SDS011;31254;51.680;5.394;2023-05-25T07:40:26;14.75;;;4.00;;
45522;SDS011;31254;51.680;5.394;2023-05-25T07:42:53;7.72;;;3.20;;
45522;SDS011;31254;51.680;5.394;2023-05-25T07:45:20;12.18;;;3.90;;
45522;SDS011;31254;51.680;5.394;2023-05-25T07:47:47;11.43;;;4.50;;
45522;SDS011;31254;51.680;5.394;2023-05-25T07:50:17;10.57;;;4.07;;
45522;SDS011;31254;51.680;5.394;2023-05-25T07:52:44;12.68;;;3.85;;
45522;SDS011;31254;51.680;5.394;2023-05-25T07:55:12;7.60;;;3.20;;
45522;SDS011;31254;51.680;5.394;2023-05-25T07:57:39;8.98;;;3.25;;
45522;SDS011;31254;51.680;5.394;2023-05-25T08:00:06;16.40;;;5.03;;
45522;SDS011;31254;51.680;5.394;2023-05-25T08:02:39;9.73;;;3.92;;
45522;SDS011;31254;51.680;5.394;2023-05-25T08:05:07;10.73;;;3.63;;
45522;SDS011;31254;51.680;5.394;2023-05-25T08:07:37;10.75;;;3.60;;
45522;SDS011;31254;51.680;5.394;2023-05-25T08:10:08;9.50;;;3.67;;
45522;SDS011;31254;51.680;5.394;2023-05-25T08:12:35;15.25;;;3.83;;
45522;SDS011;31254;51.680;5.394;2023-05-25T08:15:13;10.98;;;3.97;;
45522;SDS011;31254;51.680;5.394;2023-05-25T08:17:42;10.85;;;3.60;;
45522;SDS011;31254;51.680;5.394;2023-05-25T08:20:10;9.85;;;3.42;;
45522;SDS011;31254;51.680;5.394;2023-05-25T08:22:45;9.93;;;3.25;;
45522;SDS011;31254;51.680;5.394;2023-05-25T08:25:15;15.32;;;3.55;;
45522;SDS011;31254;51.680;5.394;2023-05-25T08:27:44;9.60;;;3.30;;
45522;SDS011;31254;51.680;5.394;2023-05-25T08:30:14;13.50;;;3.75;;
45522;SDS011;31254;51.680;5.394;2023-05-25T08:32:41;15.73;;;3.65;;
45522;SDS011;31254;51.680;5.394;2023-05-25T08:35:09;10.15;;;3.33;;
45522;SDS011;31254;51.680;5.394;2023-05-25T08:37:36;10.70;;;3.22;;
45522;SDS011;31254;51.680;5.394;2023-05-25T08:40:03;11.57;;;3.20;;
45522;SDS011;31254;51.680;5.394;2023-05-25T08:42:33;15.18;;;3.40;;
45522;SDS011;31254;51.680;5.394;2023-05-25T08:45:02;9.90;;;3.05;;
45522;SDS011;31254;51.680;5.394;2023-05-25T08:47:30;13.82;;;4.00;;
45522;SDS011;31254;51.680;5.394;2023-05-25T08:50:02;11.63;;;3.88;;
45522;SDS011;31254;51.680;5.394;2023-05-25T08:52:29;9.60;;;3.78;;
45522;SDS011;31254;51.680;5.394;2023-05-25T08:54:59;10.57;;;4.20;;
45522;SDS011;31254;51.680;5.394;2023-05-25T09:00:24;12.98;;;4.88;;
45522;SDS011;31254;51.680;5.394;2023-05-25T09:03:06;15.98;;;4.50;;
45522;SDS011;31254;51.680;5.394;2023-05-25T09:05:44;12.88;;;4.63;;
45522;SDS011;31254;51.680;5.394;2023-05-25T09:08:12;11.38;;;4.00;;
45522;SDS011;31254;51.680;5.394;2023-05-25T09:10:39;14.63;;;4.18;;
45522;SDS011;31254;51.680;5.394;2023-05-25T09:13:09;16.05;;;3.65;;
45522;SDS011;31254;51.680;5.394;2023-05-25T09:15:47;10.80;;;2.88;;
45522;SDS011;31254;51.680;5.394;2023-05-25T09:18:14;11.43;;;3.35;;
45522;SDS011;31254;51.680;5.394;2023-05-25T09:20:42;12.98;;;3.13;;
45522;SDS011;31254;51.680;5.394;2023-05-25T09:23:13;8.65;;;3.35;;
45522;SDS011;31254;51.680;5.394;2023-05-25T09:25:40;9.27;;;2.83;;
45522;SDS011;31254;51.680;5.394;2023-05-25T09:28:07;13.70;;;3.53;;
45522;SDS011;31254;51.680;5.394;2023-05-25T09:30:38;12.57;;;3.65;;
45522;SDS011;31254;51.680;5.394;2023-05-25T09:33:11;11.05;;;2.80;;
45522;SDS011;31254;51.680;5.394;2023-05-25T09:35:41;7.25;;;2.40;;
45522;SDS011;31254;51.680;5.394;2023-05-25T09:38:11;11.98;;;2.30;;
45522;SDS011;31254;51.680;5.394;2023-05-25T09:40:41;7.13;;;2.47;;
45522;SDS011;31254;51.680;5.394;2023-05-25T09:43:11;9.95;;;2.30;;
45522;SDS011;31254;51.680;5.394;2023-05-25T09:45:53;10.30;;;2.42;;
45522;SDS011;31254;51.680;5.394;2023-05-25T09:48:20;11.40;;;2.63;;
45522;SDS011;31254;51.680;5.394;2023-05-25T09:50:47;5.88;;;2.03;;
45522;SDS011;31254;51.680;5.394;2023-05-25T09:53:15;9.70;;;2.13;;
45522;SDS011;31254;51.680;5.394;2023-05-25T09:55:47;11.30;;;3.28;;
45522;SDS011;31254;51.680;5.394;2023-05-25T09:58:21;11.32;;;2.70;;
45522;SDS011;31254;51.680;5.394;2023-05-25T10:00:50;6.53;;;2.38;;
45522;SDS011;31254;51.680;5.394;2023-05-25T10:03:21;10.73;;;2.53;;
45522;SDS011;31254;51.680;5.394;2023-05-25T10:05:47;10.32;;;2.45;;
45522;SDS011;31254;51.680;5.394;2023-05-25T10:08:16;8.52;;;2.38;;
45522;SDS011;31254;51.680;5.394;2023-05-25T10:10:45;13.90;;;2.53;;
45522;SDS011;31254;51.680;5.394;2023-05-25T10:13:17;13.23;;;3.08;;
45522;SDS011;31254;51.680;5.394;2023-05-25T10:15:47;10.65;;;2.97;;
45522;SDS011;31254;51.680;5.394;2023-05-25T10:18:24;9.27;;;2.90;;
45522;SDS011;31254;51.680;5.394;2023-05-25T10:20:59;10.23;;;3.33;;
45522;SDS011;31254;51.680;5.394;2023-05-25T10:23:31;11.40;;;3.13;;
45522;SDS011;31254;51.680;5.394;2023-05-25T10:26:03;11.73;;;2.53;;
45522;SDS011;31254;51.680;5.394;2023-05-25T10:28:35;12.23;;;3.53;;
45522;SDS011;31254;51.680;5.394;2023-05-25T10:31:02;9.68;;;4.20;;
45522;SDS011;31254;51.680;5.394;2023-05-25T10:33:31;11.75;;;4.00;;
45522;SDS011;31254;51.680;5.394;2023-05-25T10:35:59;14.85;;;3.83;;
45522;SDS011;31254;51.680;5.394;2023-05-25T10:38:37;8.50;;;3.17;;
45522;SDS011;31254;51.680;5.394;2023-05-25T10:41:05;11.68;;;3.47;;
45522;SDS011;31254;51.680;5.394;2023-05-25T10:43:39;11.77;;;3.22;;
45522;SDS011;31254;51.680;5.394;2023-05-25T10:46:06;7.80;;;3.03;;
45522;SDS011;31254;51.680;5.394;2023-05-25T10:48:37;9.20;;;3.15;;
45522;SDS011;31254;51.680;5.394;2023-05-25T10:51:05;7.85;;;2.60;;
45522;SDS011;31254;51.680;5.394;2023-05-25T10:53:37;15.85;;;4.43;;
45522;SDS011;31254;51.680;5.394;2023-05-25T10:56:04;8.40;;;2.95;;
45522;SDS011;31254;51.680;5.394;2023-05-25T10:58:34;14.00;;;3.60;;
45522;SDS011;31254;51.680;5.394;2023-05-25T11:06:14;9.65;;;2.83;;
45522;SDS011;31254;51.680;5.394;2023-05-25T11:08:48;14.63;;;3.42;;
45522;SDS011;31254;51.680;5.394;2023-05-25T11:14:22;11.48;;;3.05;;
45522;SDS011;31254;51.680;5.394;2023-05-25T11:19:44;13.02;;;3.30;;
45522;SDS011;31254;51.680;5.394;2023-05-25T11:24:59;12.32;;;3.53;;
45522;SDS011;31254;51.680;5.394;2023-05-25T11:27:28;12.98;;;3.97;;
45522;SDS011;31254;51.680;5.394;2023-05-25T11:29:56;11.02;;;3.65;;
45522;SDS011;31254;51.680;5.394;2023-05-25T11:32:24;13.73;;;3.88;;
45522;SDS011;31254;51.680;5.394;2023-05-25T11:34:52;9.93;;;3.33;;
45522;SDS011;31254;51.680;5.394;2023-05-25T11:37:25;15.30;;;3.45;;
45522;SDS011;31254;51.680;5.394;2023-05-25T11:39:54;11.50;;;3.92;;
45522;SDS011;31254;51.680;5.394;2023-05-25T11:42:21;11.10;;;3.63;;
45522;SDS011;31254;51.680;5.394;2023-05-25T11:44:51;10.65;;;3.33;;
45522;SDS011;31254;51.680;5.394;2023-05-25T11:47:20;12.20;;;3.67;;
45522;SDS011;31254;51.680;5.394;2023-05-25T11:49:49;9.32;;;3.58;;
45522;SDS011;31254;51.680;5.394;2023-05-25T11:52:16;8.63;;;2.97;;
45522;SDS011;31254;51.680;5.394;2023-05-25T11:54:47;9.95;;;3.40;;
45522;SDS011;31254;51.680;5.394;2023-05-25T11:59:56;8.50;;;3.28;;
45522;SDS011;31254;51.680;5.394;2023-05-25T12:02:26;12.38;;;3.53;;
45522;SDS011;31254;51.680;5.394;2023-05-25T12:04:54;7.15;;;2.92;;
45522;SDS011;31254;51.680;5.394;2023-05-25T12:07:21;11.05;;;3.47;;
45522;SDS011;31254;51.680;5.394;2023-05-25T12:09:49;9.25;;;3.17;;
45522;SDS011;31254;51.680;5.394;2023-05-25T12:12:16;10.90;;;4.00;;
45522;SDS011;31254;51.680;5.394;2023-05-25T12:14:49;9.98;;;3.75;;
45522;SDS011;31254;51.680;5.394;2023-05-25T12:17:17;9.27;;;4.00;;
45522;SDS011;31254;51.680;5.394;2023-05-25T12:19:46;8.50;;;3.10;;
45522;SDS011;31254;51.680;5.394;2023-05-25T12:22:14;10.60;;;3.50;;
45522;SDS011;31254;51.680;5.394;2023-05-25T12:24:41;10.68;;;3.22;;
45522;SDS011;31254;51.680;5.394;2023-05-25T12:27:15;10.80;;;3.45;;
45522;SDS011;31254;51.680;5.394;2023-05-25T12:29:46;7.75;;;3.15;;
45522;SDS011;31254;51.680;5.394;2023-05-25T12:32:13;11.25;;;3.65;;
45522;SDS011;31254;51.680;5.394;2023-05-25T12:34:41;10.80;;;3.03;;
45522;SDS011;31254;51.680;5.394;2023-05-25T12:37:18;7.20;;;3.28;;
45522;SDS011;31254;51.680;5.394;2023-05-25T12:39:48;8.02;;;2.72;;
45522;SDS011;31254;51.680;5.394;2023-05-25T12:42:16;8.65;;;3.30;;
45522;SDS011;31254;51.680;5.394;2023-05-25T12:44:44;7.78;;;3.20;;
45522;SDS011;31254;51.680;5.394;2023-05-25T12:47:13;10.25;;;4.03;;
45522;SDS011;31254;51.680;5.394;2023-05-25T12:49:42;8.80;;;3.22;;
45522;SDS011;31254;51.680;5.394;2023-05-25T12:52:10;10.00;;;3.10;;
45522;SDS011;31254;51.680;5.394;2023-05-25T12:54:56;7.35;;;3.08;;
45522;SDS011;31254;51.680;5.394;2023-05-25T12:57:32;7.78;;;3.38;;
45522;SDS011;31254;51.680;5.394;2023-05-25T13:00:01;10.65;;;3.13;;
45522;SDS011;31254;51.680;5.394;2023-05-25T13:02:29;7.80;;;3.30;;
45522;SDS011;31254;51.680;5.394;2023-05-25T13:04:55;7.43;;;3.10;;
45522;SDS011;31254;51.680;5.394;2023-05-25T13:07:24;10.10;;;3.05;;
45522;SDS011;31254;51.680;5.394;2023-05-25T13:09:53;12.05;;;3.15;;
45522;SDS011;31254;51.680;5.394;2023-05-25T13:12:20;9.13;;;2.85;;
45522;SDS011;31254;51.680;5.394;2023-05-25T13:14:47;7.63;;;2.97;;
45522;SDS011;31254;51.680;5.394;2023-05-25T13:17:14;10.95;;;3.17;;
45522;SDS011;31254;51.680;5.394;2023-05-25T13:19:41;6.60;;;3.08;;
45522;SDS011;31254;51.680;5.394;2023-05-25T13:22:07;9.15;;;3.13;;
45522;SDS011;31254;51.680;5.394;2023-05-25T13:24:34;11.15;;;3.83;;
45522;SDS011;31254;51.680;5.394;2023-05-25T13:27:01;8.35;;;3.13;;
45522;SDS011;31254;51.680;5.394;2023-05-25T13:29:29;7.05;;;2.67;;
45522;SDS011;31254;51.680;5.394;2023-05-25T13:31:58;7.25;;;2.97;;
45522;SDS011;31254;51.680;5.394;2023-05-25T13:34:25;9.80;;;2.72;;
45522;SDS011;31254;51.680;5.394;2023-05-25T13:36:52;12.95;;;3.60;;
45522;SDS011;31254;51.680;5.394;2023-05-25T13:39:19;9.40;;;3.10;;
45522;SDS011;31254;51.680;5.394;2023-05-25T13:41:48;9.10;;;2.92;;
45522;SDS011;31254;51.680;5.394;2023-05-25T13:44:15;8.98;;;3.17;;
45522;SDS011;31254;51.680;5.394;2023-05-25T13:46:46;8.48;;;3.40;;
45522;SDS011;31254;51.680;5.394;2023-05-25T13:49:13;9.93;;;2.90;;
45522;SDS011;31254;51.680;5.394;2023-05-25T13:51:41;8.15;;;3.28;;
45522;SDS011;31254;51.680;5.394;2023-05-25T13:54:08;7.32;;;2.88;;
45522;SDS011;31254;51.680;5.394;2023-05-25T13:56:35;7.45;;;2.60;;
45522;SDS011;31254;51.680;5.394;2023-05-25T13:59:02;8.50;;;2.88;;
45522;SDS011;31254;51.680;5.394;2023-05-25T14:01:29;13.60;;;2.72;;
45522;SDS011;31254;51.680;5.394;2023-05-25T14:03:58;11.00;;;3.42;;
45522;SDS011;31254;51.680;5.394;2023-05-25T14:06:26;11.65;;;2.95;;
45522;SDS011;31254;51.680;5.394;2023-05-25T14:08:54;11.02;;;3.20;;
45522;SDS011;31254;51.680;5.394;2023-05-25T14:11:21;6.95;;;3.15;;
45522;SDS011;31254;51.680;5.394;2023-05-25T14:13:53;8.75;;;3.42;;
45522;SDS011;31254;51.680;5.394;2023-05-25T14:16:21;8.32;;;3.00;;
45522;SDS011;31254;51.680;5.394;2023-05-25T14:18:48;8.35;;;3.20;;
45522;SDS011;31254;51.680;5.394;2023-05-25T14:21:15;6.30;;;2.50;;
45522;SDS011;31254;51.680;5.394;2023-05-25T14:23:43;7.55;;;3.30;;
45522;SDS011;31254;51.680;5.394;2023-05-25T14:26:10;7.93;;;2.70;;
45522;SDS011;31254;51.680;5.394;2023-05-25T14:28:40;9.13;;;3.67;;
45522;SDS011;31254;51.680;5.394;2023-05-25T14:31:07;8.52;;;2.85;;
45522;SDS011;31254;51.680;5.394;2023-05-25T14:33:34;7.60;;;2.30;;
45522;SDS011;31254;51.680;5.394;2023-05-25T14:36:04;9.98;;;3.67;;
45522;SDS011;31254;51.680;5.394;2023-05-25T14:38:31;10.35;;;3.78;;
45522;SDS011;31254;51.680;5.394;2023-05-25T14:40:58;11.10;;;4.05;;
45522;SDS011;31254;51.680;5.394;2023-05-25T14:43:25;9.10;;;3.10;;
45522;SDS011;31254;51.680;5.394;2023-05-25T14:45:52;10.52;;;3.60;;
45522;SDS011;31254;51.680;5.394;2023-05-25T14:48:18;9.85;;;3.63;;
45522;SDS011;31254;51.680;5.394;2023-05-25T14:50:50;11.18;;;3.58;;
45522;SDS011;31254;51.680;5.394;2023-05-25T14:53:18;11.00;;;3.70;;
45522;SDS011;31254;51.680;5.394;2023-05-25T14:55:45;15.18;;;4.20;;
45522;SDS011;31254;51.680;5.394;2023-05-25T14:58:12;10.90;;;3.42;;
45522;SDS011;31254;51.680;5.394;2023-05-25T15:00:40;9.02;;;3.45;;
45522;SDS011;31254;51.680;5.394;2023-05-25T15:03:07;9.43;;;3.45;;
45522;SDS011;31254;51.680;5.394;2023-05-25T15:05:34;8.95;;;2.90;;
45522;SDS011;31254;51.680;5.394;2023-05-25T15:08:03;8.55;;;3.45;;
45522;SDS011;31254;51.680;5.394;2023-05-25T15:10:30;9.13;;;3.17;;
45522;SDS011;31254;51.680;5.394;2023-05-25T15:12:57;10.38;;;3.58;;
45522;SDS011;31254;51.680;5.394;2023-05-25T15:15:24;7.18;;;3.22;;